createdAt,value
2023-12-04T00:00:18.213Z,0.00
2023-12-04T00:01:18.135Z,0.00
2023-12-04T00:02:18.126Z,0.00
2023-12-04T00:03:17.997Z,0.00
2023-12-04T00:04:17.996Z,0.00
2023-12-04T00:05:17.835Z,0.00
2023-12-04T00:06:17.751Z,0.00
2023-12-04T00:07:17.567Z,0.00
2023-12-04T00:08:17.481Z,0.00
2023-12-04T00:09:17.389Z,0.00
2023-12-04T00:10:17.315Z,0.00
2023-12-04T00:11:17.276Z,0.00
2023-12-04T00:12:17.210Z,0.00
2023-12-04T00:13:17.024Z,0.00
2023-12-04T00:14:16.936Z,0.00
2023-12-04T00:15:16.840Z,0.00
2023-12-04T00:16:16.774Z,0.00
2023-12-04T00:17:16.710Z,0.00
2023-12-04T00:18:16.602Z,0.00
2023-12-04T00:19:16.549Z,0.00
2023-12-04T00:20:16.383Z,0.00
2023-12-04T00:21:16.392Z,0.00
2023-12-04T00:22:16.208Z,0.00
2023-12-04T00:23:16.120Z,0.00
2023-12-04T00:24:16.021Z,0.00
2023-12-04T00:25:16.144Z,0.00
2023-12-04T00:26:16.087Z,0.00
2023-12-04T00:27:15.764Z,0.00
2023-12-04T00:28:15.662Z,0.00
2023-12-04T00:29:15.569Z,0.00
2023-12-04T00:30:15.473Z,0.00
2023-12-04T00:31:15.383Z,0.00
2023-12-04T00:32:15.342Z,0.00
2023-12-04T00:33:15.317Z,0.00
2023-12-04T00:34:15.205Z,0.00
2023-12-04T00:35:15.221Z,0.00
2023-12-04T00:36:14.928Z,0.00
2023-12-04T00:37:14.836Z,0.00
2023-12-04T00:38:14.745Z,0.00
2023-12-04T00:39:14.662Z,0.00
2023-12-04T00:40:14.565Z,0.00
2023-12-04T00:41:14.491Z,0.00
2023-12-04T00:42:14.379Z,0.00
2023-12-04T00:43:14.287Z,0.00
2023-12-04T00:44:14.196Z,0.00
2023-12-04T00:45:14.106Z,0.00
2023-12-04T00:46:14.010Z,0.00
2023-12-04T00:47:14.293Z,0.00
2023-12-04T00:48:13.873Z,0.00
2023-12-04T00:49:13.905Z,0.00
2023-12-04T00:50:13.649Z,0.00
2023-12-04T00:51:13.566Z,0.00
2023-12-04T00:52:13.459Z,0.00
2023-12-04T00:53:13.583Z,0.00
2023-12-04T00:54:13.279Z,0.00
2023-12-04T00:55:13.254Z,0.00
2023-12-04T00:56:13.106Z,0.00
2023-12-04T00:57:13.012Z,0.00
2023-12-04T00:58:12.983Z,0.00
2023-12-04T00:59:12.995Z,0.00
2023-12-04T01:00:12.725Z,0.00
2023-12-04T01:01:12.637Z,0.00
2023-12-04T01:02:12.548Z,0.00
2023-12-04T01:03:12.478Z,0.00
2023-12-04T01:04:12.372Z,0.00
2023-12-04T01:05:12.300Z,0.00
2023-12-04T01:06:12.181Z,0.00
2023-12-04T01:07:12.149Z,0.00
2023-12-04T01:08:11.998Z,0.00
2023-12-04T01:09:11.916Z,0.00
2023-12-04T01:10:11.841Z,0.00
2023-12-04T01:11:11.726Z,0.00
2023-12-04T01:12:11.635Z,0.00
2023-12-04T01:13:11.541Z,0.00
2023-12-04T01:14:11.476Z,0.00
2023-12-04T01:15:11.362Z,0.00
2023-12-04T01:16:11.273Z,0.00
2023-12-04T01:17:11.171Z,0.00
2023-12-04T01:18:11.196Z,0.00
2023-12-04T01:19:11.062Z,0.00
2023-12-04T01:20:10.894Z,0.00
2023-12-04T01:21:10.830Z,0.00
2023-12-04T01:22:10.749Z,0.00
2023-12-04T01:23:10.626Z,0.00
2023-12-04T01:24:10.530Z,0.00
2023-12-04T01:25:10.511Z,0.00
2023-12-04T01:26:10.360Z,0.00
2023-12-04T01:27:10.300Z,0.00
2023-12-04T01:28:10.207Z,0.00
2023-12-04T01:29:10.079Z,0.00
2023-12-04T01:30:10.020Z,0.00
2023-12-04T01:31:09.888Z,0.00
2023-12-04T01:32:09.793Z,0.00
2023-12-04T01:33:09.814Z,0.00
2023-12-04T01:34:09.635Z,0.00
2023-12-04T01:35:09.528Z,0.00
2023-12-04T01:36:09.425Z,0.00
2023-12-04T01:37:09.358Z,0.00
2023-12-04T01:38:09.242Z,0.00
2023-12-04T01:39:09.170Z,0.00
2023-12-04T01:40:09.129Z,0.00
2023-12-04T01:41:08.968Z,0.00
2023-12-04T01:42:08.879Z,0.00
2023-12-04T01:43:08.818Z,0.00
2023-12-04T01:44:08.692Z,0.00
2023-12-04T01:45:08.601Z,0.00
2023-12-04T01:46:08.543Z,0.00
2023-12-04T01:47:08.487Z,0.00
2023-12-04T01:48:08.432Z,0.00
2023-12-04T01:49:08.311Z,0.00
2023-12-04T01:50:08.140Z,0.00
2023-12-04T01:51:08.051Z,0.00
2023-12-04T01:52:08.062Z,0.00
2023-12-04T01:53:07.891Z,0.00
2023-12-04T01:54:07.772Z,0.00
2023-12-04T01:55:07.752Z,0.00
2023-12-04T01:56:07.601Z,0.00
2023-12-04T01:57:07.498Z,0.00
2023-12-04T01:58:07.432Z,0.00
2023-12-04T01:59:07.328Z,0.00
2023-12-04T02:00:07.225Z,0.00
2023-12-04T02:01:07.170Z,0.00
2023-12-04T02:02:07.043Z,0.00
2023-12-04T02:03:06.964Z,0.00
2023-12-04T02:04:06.969Z,0.00
2023-12-04T02:05:06.768Z,0.00
2023-12-04T02:06:06.693Z,0.00
2023-12-04T02:07:06.589Z,0.00
2023-12-04T02:08:06.486Z,0.00
2023-12-04T02:09:06.423Z,0.00
2023-12-04T02:10:06.338Z,0.00
2023-12-04T02:11:06.222Z,0.00
2023-12-04T02:12:06.127Z,0.00
2023-12-04T02:13:06.076Z,0.00
2023-12-04T02:14:05.952Z,0.00
2023-12-04T02:15:05.870Z,0.00
2023-12-04T02:16:05.775Z,0.00
2023-12-04T02:17:05.675Z,0.00
2023-12-04T02:18:05.688Z,0.00
2023-12-04T02:19:05.560Z,0.00
2023-12-04T02:20:05.392Z,0.00
2023-12-04T02:21:05.305Z,0.00
2023-12-04T02:22:05.240Z,0.00
2023-12-04T02:23:05.124Z,0.00
2023-12-04T02:24:05.095Z,0.00
2023-12-04T02:25:05.002Z,0.00
2023-12-04T02:26:04.850Z,0.00
2023-12-04T02:27:04.755Z,0.00
2023-12-04T02:28:04.884Z,0.00
2023-12-04T02:29:04.570Z,0.00
2023-12-04T02:30:04.485Z,0.00
2023-12-04T02:31:04.398Z,0.00
2023-12-04T02:32:04.292Z,0.00
2023-12-04T02:33:04.283Z,0.00
2023-12-04T02:34:04.155Z,0.00
2023-12-04T02:35:04.017Z,0.00
2023-12-04T02:36:03.944Z,0.00
2023-12-04T02:37:03.946Z,0.00
2023-12-04T02:38:03.892Z,0.00
2023-12-04T02:39:03.652Z,0.00
2023-12-04T02:40:03.710Z,0.00
2023-12-04T02:41:03.496Z,0.00
2023-12-04T02:42:03.376Z,0.00
2023-12-04T02:43:03.333Z,0.00
2023-12-04T02:44:03.228Z,0.00
2023-12-04T02:45:03.112Z,0.00
2023-12-04T02:46:03.041Z,0.00
2023-12-04T02:47:02.915Z,0.00
2023-12-04T02:48:02.971Z,0.00
2023-12-04T02:49:02.894Z,0.00
2023-12-04T02:50:02.638Z,0.00
2023-12-04T02:51:02.550Z,0.00
2023-12-04T02:52:02.500Z,0.00
2023-12-04T02:53:02.424Z,0.00
2023-12-04T02:54:02.288Z,0.00
2023-12-04T02:55:02.212Z,0.00
2023-12-04T02:56:02.113Z,0.00
2023-12-04T02:57:02.026Z,0.00
2023-12-04T02:58:01.950Z,0.00
2023-12-04T02:59:01.813Z,0.00
2023-12-04T03:00:01.737Z,0.00
2023-12-04T03:01:01.976Z,0.00
2023-12-04T03:02:01.600Z,0.00
2023-12-04T03:03:01.493Z,0.00
2023-12-04T03:04:01.403Z,0.00
2023-12-04T03:05:01.262Z,0.00
2023-12-04T03:06:01.180Z,0.00
2023-12-04T03:07:01.095Z,0.00
2023-12-04T03:08:00.988Z,0.00
2023-12-04T03:09:00.892Z,0.00
2023-12-04T03:10:00.968Z,0.00
2023-12-04T03:11:00.714Z,0.00
2023-12-04T03:12:00.636Z,0.00
2023-12-04T03:13:00.583Z,0.00
2023-12-04T03:14:00.438Z,0.00
2023-12-04T03:15:00.387Z,0.00
2023-12-04T03:16:00.252Z,0.00
2023-12-04T03:17:00.201Z,0.00
2023-12-04T03:18:00.169Z,0.00
2023-12-04T03:19:00.086Z,0.00
2023-12-04T03:19:59.886Z,0.00
2023-12-04T03:20:59.798Z,0.00
2023-12-04T03:21:59.742Z,0.00
2023-12-04T03:22:59.611Z,0.00
2023-12-04T03:23:59.519Z,0.00
2023-12-04T03:24:59.614Z,0.00
2023-12-04T03:25:59.368Z,0.00
2023-12-04T03:26:59.252Z,0.00
2023-12-04T03:27:59.204Z,0.00
2023-12-04T03:28:59.080Z,0.00
2023-12-04T03:29:59.073Z,0.00
2023-12-04T03:30:58.888Z,0.00
2023-12-04T03:31:58.831Z,0.00
2023-12-04T03:32:58.856Z,0.00
2023-12-04T03:33:58.744Z,0.00
2023-12-04T03:34:58.517Z,0.00
2023-12-04T03:35:58.423Z,0.00
2023-12-04T03:36:58.491Z,0.00
2023-12-04T03:37:58.245Z,0.00
2023-12-04T03:38:58.144Z,0.00
2023-12-04T03:39:58.340Z,0.00
2023-12-04T03:40:57.959Z,0.00
2023-12-04T03:41:57.870Z,0.00
2023-12-04T03:42:57.854Z,0.00
2023-12-04T03:43:57.689Z,0.00
2023-12-04T03:44:57.623Z,0.00
2023-12-04T03:45:57.525Z,0.00
2023-12-04T03:46:57.435Z,0.00
2023-12-04T03:47:57.411Z,0.00
2023-12-04T03:48:57.255Z,0.00
2023-12-04T03:49:57.144Z,0.00
2023-12-04T03:50:57.049Z,0.00
2023-12-04T03:51:57.038Z,0.00
2023-12-04T03:52:56.870Z,0.00
2023-12-04T03:53:56.775Z,0.00
2023-12-04T03:54:56.729Z,0.00
2023-12-04T03:55:56.588Z,0.00
2023-12-04T03:56:56.495Z,0.00
2023-12-04T03:57:56.419Z,0.00
2023-12-04T03:58:56.318Z,0.00
2023-12-04T03:59:56.220Z,0.00
2023-12-04T04:00:56.210Z,0.00
2023-12-04T04:01:56.062Z,0.00
2023-12-04T04:02:55.986Z,0.00
2023-12-04T04:03:55.874Z,0.00
2023-12-04T04:04:55.762Z,0.00
2023-12-04T04:05:55.820Z,0.00
2023-12-04T04:06:55.621Z,0.00
2023-12-04T04:07:55.489Z,0.00
2023-12-04T04:08:55.401Z,0.00
2023-12-04T04:09:55.321Z,0.00
2023-12-04T04:10:55.212Z,0.00
2023-12-04T04:11:55.137Z,0.00
2023-12-04T04:12:55.089Z,0.00
2023-12-04T04:13:54.938Z,0.00
2023-12-04T04:14:54.843Z,0.00
2023-12-04T04:15:54.760Z,0.00
2023-12-04T04:16:54.727Z,0.00
2023-12-04T04:17:54.642Z,0.00
2023-12-04T04:18:54.564Z,0.00
2023-12-04T04:19:54.437Z,0.00
2023-12-04T04:20:54.295Z,0.00
2023-12-04T04:21:54.217Z,0.00
2023-12-04T04:22:54.112Z,0.00
2023-12-04T04:23:54.023Z,0.00
2023-12-04T04:24:55.565Z,0.00
2023-12-04T04:25:53.889Z,0.00
2023-12-04T04:26:53.743Z,0.00
2023-12-04T04:27:53.683Z,0.00
2023-12-04T04:28:53.562Z,0.00
2023-12-04T04:29:53.471Z,0.00
2023-12-04T04:30:53.440Z,0.00
2023-12-04T04:31:53.286Z,0.00
2023-12-04T04:32:53.238Z,0.00
2023-12-04T04:33:53.164Z,0.00
2023-12-04T04:34:53.035Z,0.00
2023-12-04T04:35:52.918Z,0.00
2023-12-04T04:36:52.843Z,0.00
2023-12-04T04:37:52.741Z,0.00
2023-12-04T04:38:52.650Z,0.00
2023-12-04T04:39:52.573Z,0.00
2023-12-04T04:40:52.504Z,0.00
2023-12-04T04:41:52.375Z,0.00
2023-12-04T04:42:52.315Z,0.00
2023-12-04T04:43:52.385Z,0.00
2023-12-04T04:44:52.100Z,0.00
2023-12-04T04:45:52.037Z,0.00
2023-12-04T04:46:51.942Z,0.00
2023-12-04T04:47:51.856Z,0.00
2023-12-04T04:48:51.787Z,0.00
2023-12-04T04:49:51.657Z,0.00
2023-12-04T04:50:51.549Z,0.00
2023-12-04T04:51:51.494Z,0.00
2023-12-04T04:52:51.374Z,0.00
2023-12-04T04:53:51.324Z,0.00
2023-12-04T04:54:51.220Z,0.00
2023-12-04T04:55:51.147Z,0.00
2023-12-04T04:56:51.010Z,0.00
2023-12-04T04:57:50.936Z,0.00
2023-12-04T04:58:53.339Z,0.00
2023-12-04T04:59:50.732Z,0.00
2023-12-04T05:00:50.946Z,0.00
2023-12-04T05:01:50.566Z,0.00
2023-12-04T05:02:50.451Z,0.00
2023-12-04T05:03:50.481Z,0.00
2023-12-04T05:04:50.472Z,0.00
2023-12-04T05:05:50.185Z,0.00
2023-12-04T05:06:50.099Z,0.00
2023-12-04T05:07:49.988Z,0.00
2023-12-04T05:08:49.894Z,0.00
2023-12-04T05:09:49.824Z,0.00
2023-12-04T05:10:49.711Z,0.00
2023-12-04T05:11:49.723Z,0.00
2023-12-04T05:12:49.537Z,0.00
2023-12-04T05:13:49.438Z,0.00
2023-12-04T05:14:49.496Z,0.00
2023-12-04T05:15:49.270Z,0.00
2023-12-04T05:16:49.163Z,0.00
2023-12-04T05:17:49.115Z,0.00
2023-12-04T05:18:49.062Z,0.00
2023-12-04T05:19:50.160Z,0.00
2023-12-04T05:20:48.814Z,0.00
2023-12-04T05:21:48.723Z,0.00
2023-12-04T05:22:48.710Z,0.00
2023-12-04T05:23:48.529Z,0.00
2023-12-04T05:24:48.472Z,0.00
2023-12-04T05:25:50.637Z,0.00
2023-12-04T05:26:48.260Z,0.00
2023-12-04T05:27:50.406Z,0.00
2023-12-04T05:28:48.064Z,0.00
2023-12-04T05:29:48.000Z,0.00
2023-12-04T05:30:47.905Z,0.00
2023-12-04T05:31:47.788Z,0.00
2023-12-04T05:32:47.750Z,0.00
2023-12-04T05:33:47.748Z,0.00
2023-12-04T05:34:47.549Z,0.00
2023-12-04T05:35:47.435Z,0.00
2023-12-04T05:36:47.368Z,0.00
2023-12-04T05:37:47.239Z,0.00
2023-12-04T05:38:47.152Z,0.00
2023-12-04T05:39:47.322Z,0.00
2023-12-04T05:40:47.262Z,0.00
2023-12-04T05:41:46.871Z,0.00
2023-12-04T05:42:46.810Z,0.00
2023-12-04T05:43:46.689Z,0.00
2023-12-04T05:44:46.622Z,0.00
2023-12-04T05:45:46.583Z,0.00
2023-12-04T05:46:46.427Z,0.00
2023-12-04T05:47:46.351Z,0.00
2023-12-04T05:48:46.526Z,0.00
2023-12-04T05:49:46.238Z,0.00
2023-12-04T05:50:46.041Z,0.00
2023-12-04T05:51:45.984Z,0.00
2023-12-04T05:52:45.892Z,0.00
2023-12-04T05:53:45.770Z,0.00
2023-12-04T05:54:45.713Z,0.00
2023-12-04T05:55:45.613Z,0.00
2023-12-04T05:56:45.502Z,0.00
2023-12-04T05:57:45.437Z,0.00
2023-12-04T05:58:45.333Z,0.00
2023-12-04T05:59:45.234Z,0.00
2023-12-04T06:00:45.169Z,0.00
2023-12-04T06:01:45.075Z,0.00
2023-12-04T06:02:44.991Z,0.00
2023-12-04T06:03:44.899Z,0.00
2023-12-04T06:04:44.790Z,0.00
2023-12-04T06:05:44.744Z,0.00
2023-12-04T06:06:44.645Z,0.00
2023-12-04T06:07:44.500Z,0.00
2023-12-04T06:08:44.438Z,0.00
2023-12-04T06:09:44.355Z,0.00
2023-12-04T06:10:44.226Z,0.00
2023-12-04T06:11:46.105Z,0.00
2023-12-04T06:12:44.066Z,0.00
2023-12-04T06:13:43.956Z,0.00
2023-12-04T06:14:43.860Z,0.00
2023-12-04T06:15:43.829Z,0.00
2023-12-04T06:16:43.683Z,0.00
2023-12-04T06:17:43.822Z,0.00
2023-12-04T06:18:43.582Z,0.00
2023-12-04T06:19:43.488Z,0.00
2023-12-04T06:20:43.316Z,0.00
2023-12-04T06:21:43.276Z,0.00
2023-12-04T06:22:43.154Z,0.00
2023-12-04T06:23:43.040Z,0.00
2023-12-04T06:24:42.981Z,0.00
2023-12-04T06:25:42.857Z,0.00
2023-12-04T06:26:42.766Z,0.00
2023-12-04T06:27:42.712Z,0.00
2023-12-04T06:28:42.582Z,0.00
2023-12-04T06:29:42.496Z,0.00
2023-12-04T06:30:42.427Z,0.00
2023-12-04T06:31:42.310Z,0.00
2023-12-04T06:32:42.227Z,0.00
2023-12-04T06:33:42.201Z,4.00
2023-12-04T06:34:42.094Z,4.00
2023-12-04T06:35:41.949Z,4.00
2023-12-04T06:36:42.482Z,0.00
2023-12-04T06:37:41.812Z,4.00
2023-12-04T06:38:41.667Z,4.00
2023-12-04T06:39:41.632Z,4.00
2023-12-04T06:40:41.601Z,8.00
2023-12-04T06:41:41.395Z,4.00
2023-12-04T06:42:41.343Z,8.00
2023-12-04T06:43:41.409Z,8.00
2023-12-04T06:44:41.117Z,8.00
2023-12-04T06:45:41.060Z,8.00
2023-12-04T06:46:40.935Z,12.00
2023-12-04T06:47:40.882Z,16.00
2023-12-04T06:48:40.843Z,16.00
2023-12-04T06:49:40.761Z,16.00
2023-12-04T06:50:40.582Z,24.00
2023-12-04T06:51:40.548Z,24.00
2023-12-04T06:52:40.405Z,28.00
2023-12-04T06:53:40.302Z,32.00
2023-12-04T06:54:40.266Z,36.00
2023-12-04T06:55:40.118Z,36.00
2023-12-04T06:56:40.071Z,40.00
2023-12-04T06:57:39.953Z,48.00
2023-12-04T06:58:39.873Z,48.00
2023-12-04T06:59:39.757Z,56.00
2023-12-04T07:00:39.680Z,60.00
2023-12-04T07:01:39.611Z,60.00
2023-12-04T07:02:39.481Z,68.00
2023-12-04T07:03:39.414Z,72.00
2023-12-04T07:04:39.359Z,76.00
2023-12-04T07:05:39.276Z,80.00
2023-12-04T07:06:39.524Z,84.00
2023-12-04T07:07:39.035Z,92.00
2023-12-04T07:08:39.089Z,96.00
2023-12-04T07:09:38.865Z,100.00
2023-12-04T07:10:38.748Z,104.00
2023-12-04T07:11:38.669Z,112.00
2023-12-04T07:12:38.635Z,120.00
2023-12-04T07:13:38.474Z,124.00
2023-12-04T07:14:38.382Z,132.00
2023-12-04T07:15:38.303Z,136.00
2023-12-04T07:16:38.200Z,144.00
2023-12-04T07:17:38.161Z,152.00
2023-12-04T07:18:38.148Z,160.00
2023-12-04T07:19:38.622Z,172.00
2023-12-04T07:20:37.836Z,184.00
2023-12-04T07:21:37.756Z,200.00
2023-12-04T07:22:38.833Z,216.00
2023-12-04T07:23:37.564Z,236.00
2023-12-04T07:24:37.491Z,248.00
2023-12-04T07:25:37.380Z,264.00
2023-12-04T07:26:37.297Z,276.00
2023-12-04T07:27:37.469Z,284.00
2023-12-04T07:28:37.132Z,300.00
2023-12-04T07:29:37.018Z,312.00
2023-12-04T07:30:36.967Z,320.00
2023-12-04T07:31:37.185Z,328.00
2023-12-04T07:32:36.930Z,340.00
2023-12-04T07:33:36.863Z,348.00
2023-12-04T07:34:36.606Z,360.00
2023-12-04T07:35:36.528Z,372.00
2023-12-04T07:36:36.456Z,384.00
2023-12-04T07:37:36.524Z,396.00
2023-12-04T07:38:36.202Z,404.00
2023-12-04T07:39:36.107Z,408.00
2023-12-04T07:40:36.016Z,412.00
2023-12-04T07:41:35.924Z,416.00
2023-12-04T07:42:35.846Z,416.00
2023-12-04T07:43:35.749Z,424.00
2023-12-04T07:44:35.675Z,428.00
2023-12-04T07:45:35.628Z,440.00
2023-12-04T07:46:35.494Z,456.00
2023-12-04T07:47:35.701Z,468.00
2023-12-04T07:48:35.376Z,492.00
2023-12-04T07:49:35.274Z,520.00
2023-12-04T07:50:35.114Z,540.00
2023-12-04T07:51:35.039Z,560.00
2023-12-04T07:52:34.925Z,580.00
2023-12-04T07:53:34.833Z,600.00
2023-12-04T07:54:34.826Z,616.00
2023-12-04T07:55:34.657Z,640.00
2023-12-04T07:56:34.568Z,664.00
2023-12-04T07:57:34.472Z,688.00
2023-12-04T07:58:34.377Z,712.00
2023-12-04T07:59:34.334Z,736.00
2023-12-04T08:00:34.360Z,756.00
2023-12-04T08:01:34.233Z,772.00
2023-12-04T08:02:34.022Z,780.00
2023-12-04T08:03:34.079Z,784.00
2023-12-04T08:04:33.841Z,784.00
2023-12-04T08:05:33.744Z,788.00
2023-12-04T08:06:33.675Z,788.00
2023-12-04T08:07:33.596Z,792.00
2023-12-04T08:08:33.473Z,792.00
2023-12-04T08:09:33.433Z,796.00
2023-12-04T08:10:33.292Z,804.00
2023-12-04T08:11:33.200Z,820.00
2023-12-04T08:12:33.111Z,840.00
2023-12-04T08:13:33.021Z,868.00
2023-12-04T08:14:32.933Z,900.00
2023-12-04T08:15:32.838Z,940.00
2023-12-04T08:16:32.771Z,976.00
2023-12-04T08:17:32.975Z,1008.00
2023-12-04T08:18:32.587Z,1032.00
2023-12-04T08:19:32.592Z,1044.00
2023-12-04T08:20:39.350Z,1060.00
2023-12-04T08:21:32.300Z,1072.00
2023-12-04T08:22:32.211Z,1076.00
2023-12-04T08:23:32.197Z,1084.00
2023-12-04T08:24:32.028Z,1088.00
2023-12-04T08:25:31.951Z,1088.00
2023-12-04T08:26:31.859Z,1076.00
2023-12-04T08:27:31.770Z,1060.00
2023-12-04T08:28:31.769Z,1052.00
2023-12-04T08:29:31.578Z,1036.00
2023-12-04T08:30:31.496Z,1016.00
2023-12-04T08:31:31.397Z,1000.00
2023-12-04T08:32:31.376Z,1000.00
2023-12-04T08:33:31.234Z,1012.00
2023-12-04T08:34:31.140Z,1044.00
2023-12-04T08:35:31.037Z,1092.00
2023-12-04T08:36:44.710Z,1152.00
2023-12-04T08:37:30.936Z,1224.00
2023-12-04T08:38:30.876Z,1300.00
2023-12-04T08:39:30.729Z,1372.00
2023-12-04T08:40:30.606Z,1428.00
2023-12-04T08:41:30.496Z,1436.00
2023-12-04T08:42:30.409Z,1420.00
2023-12-04T08:43:30.316Z,1400.00
2023-12-04T08:44:30.233Z,1384.00
2023-12-04T08:45:30.207Z,1376.00
2023-12-04T08:46:30.132Z,1380.00
2023-12-04T08:47:29.993Z,1404.00
2023-12-04T08:48:29.951Z,1436.00
2023-12-04T08:49:36.159Z,1476.00
2023-12-04T08:50:29.689Z,1508.00
2023-12-04T08:51:29.622Z,1536.00
2023-12-04T08:52:29.522Z,1548.00
2023-12-04T08:53:29.472Z,1556.00
2023-12-04T08:54:29.363Z,1568.00
2023-12-04T08:55:29.429Z,1628.00
2023-12-04T08:56:31.494Z,1608.00
2023-12-04T08:57:29.108Z,1612.00
2023-12-04T08:58:29.061Z,1708.00
2023-12-04T08:59:28.875Z,1756.00
2023-12-04T09:00:28.790Z,1792.00
2023-12-04T09:01:28.831Z,1904.00
2023-12-04T09:02:28.905Z,2044.00
2023-12-04T09:03:32.481Z,2204.00
2023-12-04T09:04:28.783Z,2360.00
2023-12-04T09:05:28.515Z,2516.00
2023-12-04T09:08:28.359Z,2724.00
2023-12-04T09:08:35.162Z,2760.00
2023-12-04T09:09:28.063Z,2764.00
2023-12-04T09:10:40.712Z,2752.00
2023-12-04T09:11:27.885Z,2732.00
2023-12-04T09:12:27.706Z,2732.00
2023-12-04T09:13:27.618Z,2760.00
2023-12-04T09:14:27.530Z,2820.00
2023-12-04T09:15:27.448Z,2872.00
2023-12-04T09:16:27.351Z,2840.00
2023-12-04T09:17:30.160Z,2808.00
2023-12-04T09:18:27.213Z,2780.00
2023-12-04T09:19:27.273Z,2768.00
2023-12-04T09:20:27.031Z,2728.00
2023-12-04T09:21:26.919Z,2664.00
2023-12-04T09:22:27.072Z,2600.00
2023-12-04T09:23:27.901Z,2536.00
2023-12-04T09:24:26.710Z,2520.00
2023-12-04T09:25:26.546Z,2520.00
2023-12-04T09:26:26.458Z,2440.00
2023-12-04T09:27:26.387Z,2376.00
2023-12-04T09:28:26.271Z,2284.00
2023-12-04T09:29:26.182Z,2200.00
2023-12-04T09:30:26.115Z,2112.00
2023-12-04T09:31:26.051Z,2056.00
2023-12-04T09:32:25.995Z,2000.00
2023-12-04T09:33:25.886Z,1940.00
2023-12-04T09:34:25.738Z,1880.00
2023-12-04T09:35:25.669Z,1812.00
2023-12-04T09:36:25.604Z,1748.00
2023-12-04T09:37:25.468Z,1680.00
2023-12-04T09:38:25.389Z,1628.00
2023-12-04T09:39:25.338Z,1580.00
2023-12-04T09:40:25.353Z,1528.00
2023-12-04T09:41:25.121Z,1504.00
2023-12-04T09:42:25.083Z,1496.00
2023-12-04T09:43:26.014Z,1524.00
2023-12-04T09:44:24.850Z,1584.00
2023-12-04T09:45:24.786Z,1676.00
2023-12-04T09:46:24.666Z,1776.00
2023-12-04T09:47:24.777Z,1864.00
2023-12-04T09:48:24.624Z,1968.00
2023-12-04T09:49:24.538Z,2048.00
2023-12-04T09:50:24.536Z,2080.00
2023-12-04T09:51:24.237Z,2028.00
2023-12-04T09:52:24.171Z,1920.00
2023-12-04T09:53:24.049Z,1796.00
2023-12-04T09:54:23.988Z,1660.00
2023-12-04T09:55:24.108Z,1548.00
2023-12-04T09:56:23.767Z,1468.00
2023-12-04T09:57:23.712Z,1420.00
2023-12-04T09:58:23.598Z,1388.00
2023-12-04T09:59:23.502Z,1376.00
2023-12-04T10:00:23.445Z,1372.00
2023-12-04T10:01:26.163Z,1380.00
2023-12-04T10:02:23.342Z,1388.00
2023-12-04T10:03:23.249Z,1392.00
2023-12-04T10:04:23.053Z,1392.00
2023-12-04T10:05:22.985Z,1388.00
2023-12-04T10:06:22.936Z,1388.00
2023-12-04T10:07:22.788Z,1352.00
2023-12-04T10:08:22.727Z,1284.00
2023-12-04T10:09:22.624Z,1216.00
2023-12-04T10:10:22.540Z,1168.00
2023-12-04T10:11:22.432Z,1176.00
2023-12-04T10:12:22.433Z,1204.00
2023-12-04T10:13:55.585Z,1240.00
2023-12-04T10:14:22.366Z,1288.00
2023-12-04T10:15:22.097Z,1332.00
2023-12-04T10:16:22.100Z,1328.00
2023-12-04T10:17:21.888Z,1296.00
2023-12-04T10:18:21.866Z,1280.00
2023-12-04T10:19:21.906Z,1280.00
2023-12-04T10:20:21.617Z,1280.00
2023-12-04T10:21:22.790Z,1268.00
2023-12-04T10:22:21.439Z,1284.00
2023-12-04T10:23:21.350Z,1324.00
2023-12-04T10:24:21.296Z,1356.00
2023-12-04T10:25:21.167Z,1368.00
2023-12-04T10:26:21.080Z,1348.00
2023-12-04T10:27:21.017Z,1352.00
2023-12-04T10:28:20.900Z,1396.00
2023-12-04T10:29:20.808Z,1432.00
2023-12-04T10:30:20.746Z,1508.00
2023-12-04T10:31:20.978Z,1624.00
2023-12-04T10:32:20.570Z,1700.00
2023-12-04T10:33:20.521Z,1732.00
2023-12-04T10:34:20.413Z,1728.00
2023-12-04T10:35:20.271Z,1704.00
2023-12-04T10:36:20.197Z,1704.00
2023-12-04T10:37:20.100Z,1764.00
2023-12-04T10:38:20.001Z,1876.00
2023-12-04T10:39:19.951Z,2016.00
2023-12-04T10:40:19.847Z,2176.00
2023-12-04T10:41:19.732Z,2348.00
2023-12-04T10:42:19.723Z,2556.00
2023-12-04T10:43:19.590Z,2840.00
2023-12-04T10:44:19.466Z,3144.00
2023-12-04T10:45:19.406Z,3428.00
2023-12-04T10:46:19.284Z,3684.00
2023-12-04T10:47:19.196Z,3924.00
2023-12-04T10:48:19.441Z,4200.00
2023-12-04T10:49:19.170Z,4488.00
2023-12-04T10:50:18.933Z,4724.00
2023-12-04T10:51:18.939Z,4852.00
2023-12-04T10:52:18.745Z,4860.00
2023-12-04T10:53:18.799Z,4700.00
2023-12-04T10:54:18.684Z,4420.00
2023-12-04T10:55:18.476Z,4148.00
2023-12-04T10:56:18.435Z,3876.00
2023-12-04T10:57:18.346Z,3728.00
2023-12-04T10:58:18.233Z,3764.00
2023-12-04T10:59:18.121Z,3920.00
2023-12-04T11:00:18.054Z,3928.00
2023-12-04T11:01:17.976Z,3820.00
2023-12-04T11:02:17.931Z,3724.00
2023-12-04T11:03:17.853Z,3564.00
2023-12-04T11:04:17.679Z,3300.00
2023-12-04T11:05:17.632Z,3252.00
2023-12-04T11:06:17.529Z,3452.00
2023-12-04T11:07:17.407Z,3468.00
2023-12-04T11:08:18.748Z,3612.00
2023-12-04T11:09:17.608Z,3712.00
2023-12-04T11:10:17.153Z,3492.00
2023-12-04T11:11:17.054Z,3196.00
2023-12-04T11:12:17.280Z,3044.00
2023-12-04T11:13:17.048Z,2976.00
2023-12-04T11:14:16.786Z,2908.00
2023-12-04T11:15:16.747Z,2792.00
2023-12-04T11:16:16.643Z,2776.00
2023-12-04T11:17:16.532Z,2696.00
2023-12-04T11:18:16.539Z,2532.00
2023-12-04T11:19:16.389Z,2368.00
2023-12-04T11:20:16.554Z,2164.00
2023-12-04T11:21:16.210Z,1992.00
2023-12-04T11:22:16.081Z,1864.00
2023-12-04T11:23:15.989Z,1768.00
2023-12-04T11:24:15.958Z,1656.00
2023-12-04T11:25:15.823Z,1572.00
2023-12-04T11:26:15.731Z,1520.00
2023-12-04T11:27:15.650Z,1540.00
2023-12-04T11:28:15.572Z,1536.00
2023-12-04T11:29:15.462Z,1536.00
2023-12-04T11:30:16.761Z,1544.00
2023-12-04T11:31:15.285Z,1612.00
2023-12-04T11:32:15.249Z,1796.00
2023-12-04T11:33:15.224Z,1980.00
2023-12-04T11:34:15.156Z,2124.00
2023-12-04T11:35:14.928Z,2240.00
2023-12-04T11:36:15.181Z,2332.00
2023-12-04T11:37:14.753Z,2372.00
2023-12-04T11:38:14.667Z,2428.00
2023-12-04T11:39:14.605Z,2464.00
2023-12-04T11:40:14.489Z,2420.00
2023-12-04T11:41:14.399Z,2360.00
2023-12-04T11:42:14.334Z,2316.00
2023-12-04T11:43:14.227Z,2288.00
2023-12-04T11:44:14.171Z,2248.00
2023-12-04T11:45:14.085Z,2136.00
2023-12-04T11:46:13.956Z,2000.00
2023-12-04T11:47:13.869Z,2096.00
2023-12-04T11:48:13.874Z,2160.00
2023-12-04T11:49:13.763Z,1968.00
2023-12-04T11:50:13.610Z,1712.00
2023-12-04T11:51:13.541Z,1476.00
2023-12-04T11:52:13.432Z,1232.00
2023-12-04T11:53:13.344Z,984.00
2023-12-04T11:54:13.287Z,836.00
2023-12-04T11:55:13.159Z,820.00
2023-12-04T11:56:13.207Z,840.00
2023-12-04T11:57:13.018Z,852.00
2023-12-04T11:58:12.919Z,1004.00
2023-12-04T11:59:12.807Z,1204.00
2023-12-04T12:00:12.917Z,1464.00
2023-12-04T12:01:13.016Z,1540.00
2023-12-04T12:02:12.909Z,1464.00
2023-12-04T12:03:18.478Z,1344.00
2023-12-04T12:04:12.504Z,1408.00
2023-12-04T12:05:12.415Z,1484.00
2023-12-04T12:06:12.516Z,1612.00
2023-12-04T12:07:12.159Z,1696.00
2023-12-04T12:08:12.007Z,1776.00
2023-12-04T12:09:11.937Z,1836.00
2023-12-04T12:10:11.836Z,1892.00
2023-12-04T12:11:11.735Z,1956.00
2023-12-04T12:12:11.704Z,2020.00
2023-12-04T12:13:11.550Z,2052.00
2023-12-04T12:14:11.469Z,2016.00
2023-12-04T12:15:11.426Z,1928.00
2023-12-04T12:16:11.319Z,1868.00
2023-12-04T12:17:11.194Z,1832.00
2023-12-04T12:18:12.242Z,1860.00
2023-12-04T12:19:11.048Z,1924.00
2023-12-04T12:20:10.944Z,1916.00
2023-12-04T12:21:10.925Z,1888.00
2023-12-04T12:22:10.756Z,1940.00
2023-12-04T12:23:11.009Z,2084.00
2023-12-04T12:24:10.630Z,2128.00
2023-12-04T12:25:10.486Z,2148.00
2023-12-04T12:26:10.409Z,2132.00
2023-12-04T12:27:11.094Z,2084.00
2023-12-04T12:28:10.612Z,2024.00
2023-12-04T12:29:10.355Z,1972.00
2023-12-04T12:30:10.076Z,1952.00
2023-12-04T12:31:09.944Z,1920.00
2023-12-04T12:32:09.875Z,1892.00
2023-12-04T12:33:09.926Z,1900.00
2023-12-04T12:34:09.853Z,1872.00
2023-12-04T12:35:09.596Z,1868.00
2023-12-04T12:36:09.790Z,1864.00
2023-12-04T12:37:09.415Z,1796.00
2023-12-04T12:38:09.317Z,1740.00
2023-12-04T12:39:09.251Z,1692.00
2023-12-04T12:40:09.145Z,1644.00
2023-12-04T12:41:09.085Z,1624.00
2023-12-04T12:42:08.985Z,1596.00
2023-12-04T12:43:09.243Z,1600.00
2023-12-04T12:44:08.786Z,1652.00
2023-12-04T12:45:08.817Z,1692.00
2023-12-04T12:46:08.676Z,1708.00